<?xml version="1.0" encoding="UTF-8" standalone="no" ?>
<gpx xmlns="http://www.topografix.com/GPX/1/1" xmlns:xsi="http://www.w3.org/2001/XMLSchema-instance" xsi:schemaLocation="http://www.topografix.com/GPX/1/1 http://www.topografix.com/GPX/1/1/gpx.xsd" version="1.1" creator="VisuGPX - https://www.visugpx.com">
  <metadata>
    <name>ARQUES LA SEYNE SUR MER 1497 KM</name>
    <desc><![CDATA[Rando de Arques dans le Pas de Calais jusque La Seyne sur Mer dans le Var, 1497 km]]></desc>
  </metadata>
  <trk>
    <name><![CDATA[9 - CESSIERES MARTIGNY COURPIERRE 22.9 KM]]></name>
    <extensions>
      <line xmlns="http://www.topografix.com/GPX/gpx_style/0/2">
        <color>880000</color>
        <width>4</width>
      </line>
    </extensions>
    <trkseg>
      <trkpt lat="49.55915" lon="3.49644">
        <ele>109</ele>
        <time>2021-10-18T13:54:06+02:00</time>
      </trkpt>
      <trkpt lat="49.55865" lon="3.49552">
        <ele>105</ele>
        <time>2021-10-18T13:54:11+02:00</time>
      </trkpt>
      <trkpt lat="49.55743" lon="3.49397">
        <ele>106</ele>
        <time>2021-10-18T13:54:16+02:00</time>
      </trkpt>
      <trkpt lat="49.55627" lon="3.49529">
        <ele>107</ele>
        <time>2021-10-18T13:54:21+02:00</time>
      </trkpt>
      <trkpt lat="49.55574" lon="3.49671">
        <ele>109</ele>
        <time>2021-10-18T13:54:26+02:00</time>
      </trkpt>
      <trkpt lat="49.55598" lon="3.49722">
        <ele>108</ele>
        <time>2021-10-18T13:54:31+02:00</time>
      </trkpt>
      <trkpt lat="49.55624" lon="3.50147">
        <ele>106</ele>
        <time>2021-10-18T13:54:36+02:00</time>
      </trkpt>
      <trkpt lat="49.55535" lon="3.50422">
        <ele>96</ele>
        <time>2021-10-18T13:54:41+02:00</time>
      </trkpt>
      <trkpt lat="49.55553" lon="3.50765">
        <ele>93</ele>
        <time>2021-10-18T13:54:46+02:00</time>
      </trkpt>
      <trkpt lat="49.55497" lon="3.51072">
        <ele>99</ele>
        <time>2021-10-18T13:54:51+02:00</time>
      </trkpt>
      <trkpt lat="49.55482" lon="3.51534">
        <ele>100</ele>
        <time>2021-10-18T13:54:56+02:00</time>
      </trkpt>
      <trkpt lat="49.55535" lon="3.52006">
        <ele>93</ele>
        <time>2021-10-18T13:55:01+02:00</time>
      </trkpt>
      <trkpt lat="49.5544" lon="3.52477">
        <ele>82</ele>
        <time>2021-10-18T13:55:06+02:00</time>
      </trkpt>
      <trkpt lat="49.5547" lon="3.52697">
        <ele>79</ele>
        <time>2021-10-18T13:55:11+02:00</time>
      </trkpt>
      <trkpt lat="49.55416" lon="3.52871">
        <ele>84</ele>
        <time>2021-10-18T13:55:16+02:00</time>
      </trkpt>
      <trkpt lat="49.55402" lon="3.5332">
        <ele>74</ele>
        <time>2021-10-18T13:55:21+02:00</time>
      </trkpt>
      <trkpt lat="49.55327" lon="3.53443">
        <ele>74</ele>
        <time>2021-10-18T13:55:26+02:00</time>
      </trkpt>
      <trkpt lat="49.55179" lon="3.53832">
        <ele>87</ele>
        <time>2021-10-18T13:55:31+02:00</time>
      </trkpt>
      <trkpt lat="49.55203" lon="3.53983">
        <ele>77</ele>
        <time>2021-10-18T13:55:36+02:00</time>
      </trkpt>
      <trkpt lat="49.552" lon="3.54276">
        <ele>71</ele>
        <time>2021-10-18T13:55:41+02:00</time>
      </trkpt>
      <trkpt lat="49.55244" lon="3.5489">
        <ele>77</ele>
        <time>2021-10-18T13:55:46+02:00</time>
      </trkpt>
      <trkpt lat="49.55182" lon="3.55077">
        <ele>73</ele>
        <time>2021-10-18T13:55:51+02:00</time>
      </trkpt>
      <trkpt lat="49.55271" lon="3.5586">
        <ele>69</ele>
        <time>2021-10-18T13:55:56+02:00</time>
      </trkpt>
      <trkpt lat="49.5555" lon="3.56712">
        <ele>68</ele>
        <time>2021-10-18T13:56:01+02:00</time>
      </trkpt>
      <trkpt lat="49.55384" lon="3.56808">
        <ele>67</ele>
        <time>2021-10-18T13:56:06+02:00</time>
      </trkpt>
      <trkpt lat="49.55241" lon="3.57018">
        <ele>68</ele>
        <time>2021-10-18T13:56:11+02:00</time>
      </trkpt>
      <trkpt lat="49.55289" lon="3.57252">
        <ele>68</ele>
        <time>2021-10-18T13:56:16+02:00</time>
      </trkpt>
      <trkpt lat="49.55351" lon="3.57343">
        <ele>67</ele>
        <time>2021-10-18T13:56:21+02:00</time>
      </trkpt>
      <trkpt lat="49.55443" lon="3.57371">
        <ele>67</ele>
        <time>2021-10-18T13:56:26+02:00</time>
      </trkpt>
      <trkpt lat="49.55672" lon="3.57847">
        <ele>73</ele>
        <time>2021-10-18T13:56:31+02:00</time>
      </trkpt>
      <trkpt lat="49.55657" lon="3.58026">
        <ele>70</ele>
        <time>2021-10-18T13:56:36+02:00</time>
      </trkpt>
      <trkpt lat="49.55764" lon="3.58346">
        <ele>81</ele>
        <time>2021-10-18T13:56:41+02:00</time>
      </trkpt>
      <trkpt lat="49.55844" lon="3.58332">
        <ele>81</ele>
        <time>2021-10-18T13:56:46+02:00</time>
      </trkpt>
      <trkpt lat="49.55909" lon="3.58529">
        <ele>83</ele>
        <time>2021-10-18T13:56:51+02:00</time>
      </trkpt>
      <trkpt lat="49.56171" lon="3.58886">
        <ele>81</ele>
        <time>2021-10-18T13:56:56+02:00</time>
      </trkpt>
      <trkpt lat="49.56384" lon="3.59069">
        <ele>77</ele>
        <time>2021-10-18T13:57:01+02:00</time>
      </trkpt>
      <trkpt lat="49.56471" lon="3.58973">
        <ele>75</ele>
        <time>2021-10-18T13:57:06+02:00</time>
      </trkpt>
      <trkpt lat="49.56515" lon="3.5912">
        <ele>78</ele>
        <time>2021-10-18T13:57:11+02:00</time>
      </trkpt>
      <trkpt lat="49.56426" lon="3.5917">
        <ele>81</ele>
        <time>2021-10-18T13:57:16+02:00</time>
      </trkpt>
      <trkpt lat="49.56438" lon="3.59239">
        <ele>82</ele>
        <time>2021-10-18T13:57:21+02:00</time>
      </trkpt>
      <trkpt lat="49.56533" lon="3.59284">
        <ele>82</ele>
        <time>2021-10-18T13:57:26+02:00</time>
      </trkpt>
      <trkpt lat="49.56773" lon="3.59898">
        <ele>93</ele>
        <time>2021-10-18T13:57:31+02:00</time>
      </trkpt>
      <trkpt lat="49.56429" lon="3.59834">
        <ele>120</ele>
        <time>2021-10-18T13:57:36+02:00</time>
      </trkpt>
      <trkpt lat="49.56283" lon="3.60031">
        <ele>132</ele>
        <time>2021-10-18T13:57:41+02:00</time>
      </trkpt>
      <trkpt lat="49.56138" lon="3.5993">
        <ele>119</ele>
        <time>2021-10-18T13:57:46+02:00</time>
      </trkpt>
      <trkpt lat="49.55924" lon="3.60076">
        <ele>101</ele>
        <time>2021-10-18T13:57:51+02:00</time>
      </trkpt>
      <trkpt lat="49.55814" lon="3.60131">
        <ele>91</ele>
        <time>2021-10-18T13:57:56+02:00</time>
      </trkpt>
      <trkpt lat="49.55737" lon="3.60259">
        <ele>90</ele>
        <time>2021-10-18T13:58:01+02:00</time>
      </trkpt>
      <trkpt lat="49.55461" lon="3.60644">
        <ele>88</ele>
        <time>2021-10-18T13:58:06+02:00</time>
      </trkpt>
      <trkpt lat="49.55345" lon="3.60676">
        <ele>85</ele>
        <time>2021-10-18T13:58:11+02:00</time>
      </trkpt>
      <trkpt lat="49.55232" lon="3.60818">
        <ele>85</ele>
        <time>2021-10-18T13:58:16+02:00</time>
      </trkpt>
      <trkpt lat="49.55072" lon="3.61028">
        <ele>81</ele>
        <time>2021-10-18T13:58:21+02:00</time>
      </trkpt>
      <trkpt lat="49.5503" lon="3.6112">
        <ele>78</ele>
        <time>2021-10-18T13:58:26+02:00</time>
      </trkpt>
      <trkpt lat="49.54971" lon="3.61802">
        <ele>72</ele>
        <time>2021-10-18T13:58:31+02:00</time>
      </trkpt>
      <trkpt lat="49.55015" lon="3.61917">
        <ele>72</ele>
        <time>2021-10-18T13:58:36+02:00</time>
      </trkpt>
      <trkpt lat="49.55134" lon="3.61976">
        <ele>75</ele>
        <time>2021-10-18T13:58:41+02:00</time>
      </trkpt>
      <trkpt lat="49.55235" lon="3.62164">
        <ele>77</ele>
        <time>2021-10-18T13:58:46+02:00</time>
      </trkpt>
      <trkpt lat="49.55315" lon="3.6253">
        <ele>72</ele>
        <time>2021-10-18T13:58:51+02:00</time>
      </trkpt>
      <trkpt lat="49.55479" lon="3.62878">
        <ele>73</ele>
        <time>2021-10-18T13:58:56+02:00</time>
      </trkpt>
      <trkpt lat="49.55315" lon="3.62878">
        <ele>71</ele>
        <time>2021-10-18T13:59:01+02:00</time>
      </trkpt>
      <trkpt lat="49.54864" lon="3.62974">
        <ele>68</ele>
        <time>2021-10-18T13:59:06+02:00</time>
      </trkpt>
      <trkpt lat="49.54594" lon="3.63111">
        <ele>68</ele>
        <time>2021-10-18T13:59:11+02:00</time>
      </trkpt>
      <trkpt lat="49.54757" lon="3.63368">
        <ele>69</ele>
        <time>2021-10-18T13:59:16+02:00</time>
      </trkpt>
      <trkpt lat="49.54831" lon="3.6361">
        <ele>67</ele>
        <time>2021-10-18T13:59:21+02:00</time>
      </trkpt>
      <trkpt lat="49.54817" lon="3.63821">
        <ele>68</ele>
        <time>2021-10-18T13:59:26+02:00</time>
      </trkpt>
      <trkpt lat="49.54686" lon="3.63981">
        <ele>67</ele>
        <time>2021-10-18T13:59:31+02:00</time>
      </trkpt>
      <trkpt lat="49.54389" lon="3.64132">
        <ele>66</ele>
        <time>2021-10-18T13:59:36+02:00</time>
      </trkpt>
      <trkpt lat="49.54368" lon="3.64311">
        <ele>66</ele>
        <time>2021-10-18T13:59:41+02:00</time>
      </trkpt>
      <trkpt lat="49.54255" lon="3.64681">
        <ele>66</ele>
        <time>2021-10-18T13:59:46+02:00</time>
      </trkpt>
      <trkpt lat="49.54187" lon="3.64759">
        <ele>68</ele>
        <time>2021-10-18T13:59:51+02:00</time>
      </trkpt>
      <trkpt lat="49.54205" lon="3.64851">
        <ele>66</ele>
        <time>2021-10-18T13:59:56+02:00</time>
      </trkpt>
      <trkpt lat="49.54276" lon="3.64974">
        <ele>71</ele>
        <time>2021-10-18T14:00:01+02:00</time>
      </trkpt>
      <trkpt lat="49.54193" lon="3.65098">
        <ele>72</ele>
        <time>2021-10-18T14:00:06+02:00</time>
      </trkpt>
      <trkpt lat="49.54071" lon="3.65437">
        <ele>74</ele>
        <time>2021-10-18T14:00:11+02:00</time>
      </trkpt>
      <trkpt lat="49.53949" lon="3.65533">
        <ele>77</ele>
        <time>2021-10-18T14:00:16+02:00</time>
      </trkpt>
      <trkpt lat="49.53931" lon="3.65624">
        <ele>82</ele>
        <time>2021-10-18T14:00:21+02:00</time>
      </trkpt>
      <trkpt lat="49.5378" lon="3.65702">
        <ele>83</ele>
        <time>2021-10-18T14:00:26+02:00</time>
      </trkpt>
      <trkpt lat="49.53715" lon="3.65812">
        <ele>85</ele>
        <time>2021-10-18T14:00:31+02:00</time>
      </trkpt>
      <trkpt lat="49.53596" lon="3.65835">
        <ele>84</ele>
        <time>2021-10-18T14:00:36+02:00</time>
      </trkpt>
      <trkpt lat="49.53536" lon="3.65936">
        <ele>83</ele>
        <time>2021-10-18T14:00:41+02:00</time>
      </trkpt>
      <trkpt lat="49.5326" lon="3.65931">
        <ele>82</ele>
        <time>2021-10-18T14:00:46+02:00</time>
      </trkpt>
      <trkpt lat="49.53183" lon="3.65977">
        <ele>84</ele>
        <time>2021-10-18T14:00:51+02:00</time>
      </trkpt>
      <trkpt lat="49.52981" lon="3.65945">
        <ele>81</ele>
        <time>2021-10-18T14:00:56+02:00</time>
      </trkpt>
      <trkpt lat="49.5274" lon="3.66096">
        <ele>81</ele>
        <time>2021-10-18T14:01:01+02:00</time>
      </trkpt>
      <trkpt lat="49.52559" lon="3.66288">
        <ele>84</ele>
        <time>2021-10-18T14:01:06+02:00</time>
      </trkpt>
      <trkpt lat="49.52437" lon="3.66458">
        <ele>86</ele>
        <time>2021-10-18T14:01:11+02:00</time>
      </trkpt>
      <trkpt lat="49.52247" lon="3.66613">
        <ele>89</ele>
        <time>2021-10-18T14:01:16+02:00</time>
      </trkpt>
      <trkpt lat="49.52128" lon="3.66636">
        <ele>90</ele>
        <time>2021-10-18T14:01:21+02:00</time>
      </trkpt>
      <trkpt lat="49.52057" lon="3.66673">
        <ele>91</ele>
        <time>2021-10-18T14:01:26+02:00</time>
      </trkpt>
      <trkpt lat="49.51908" lon="3.66636">
        <ele>105</ele>
        <time>2021-10-18T14:01:31+02:00</time>
      </trkpt>
      <trkpt lat="49.51688" lon="3.66764">
        <ele>121</ele>
        <time>2021-10-18T14:01:36+02:00</time>
      </trkpt>
      <trkpt lat="49.51528" lon="3.66838">
        <ele>137</ele>
        <time>2021-10-18T14:01:41+02:00</time>
      </trkpt>
      <trkpt lat="49.51427" lon="3.66915">
        <ele>146</ele>
        <time>2021-10-18T14:01:46+02:00</time>
      </trkpt>
      <trkpt lat="49.50556" lon="3.67391">
        <ele>171</ele>
        <time>2021-10-18T14:01:51+02:00</time>
      </trkpt>
      <trkpt lat="49.50407" lon="3.67492">
        <ele>177</ele>
        <time>2021-10-18T14:01:56+02:00</time>
      </trkpt>
      <trkpt lat="49.50342" lon="3.67547">
        <ele>179</ele>
        <time>2021-10-18T14:02:01+02:00</time>
      </trkpt>
      <trkpt lat="49.50086" lon="3.67643">
        <ele>188</ele>
        <time>2021-10-18T14:02:06+02:00</time>
      </trkpt>
      <trkpt lat="49.49976" lon="3.67735">
        <ele>193</ele>
        <time>2021-10-18T14:02:11+02:00</time>
      </trkpt>
      <trkpt lat="49.49545" lon="3.67781">
        <ele>178</ele>
        <time>2021-10-18T14:02:16+02:00</time>
      </trkpt>
      <trkpt lat="49.4936" lon="3.67863">
        <ele>169</ele>
        <time>2021-10-18T14:02:21+02:00</time>
      </trkpt>
      <trkpt lat="49.4923" lon="3.67918">
        <ele>163</ele>
        <time>2021-10-18T14:02:26+02:00</time>
      </trkpt>
      <trkpt lat="49.49179" lon="3.68064">
        <ele>153</ele>
        <time>2021-10-18T14:02:31+02:00</time>
      </trkpt>
      <trkpt lat="49.49117" lon="3.68023">
        <ele>147</ele>
        <time>2021-10-18T14:02:36+02:00</time>
      </trkpt>
      <trkpt lat="49.4906" lon="3.67886">
        <ele>148</ele>
        <time>2021-10-18T14:02:41+02:00</time>
      </trkpt>
      <trkpt lat="49.48989" lon="3.67927">
        <ele>137</ele>
        <time>2021-10-18T14:02:46+02:00</time>
      </trkpt>
      <trkpt lat="49.4903" lon="3.68051">
        <ele>134</ele>
        <time>2021-10-18T14:02:51+02:00</time>
      </trkpt>
      <trkpt lat="49.49053" lon="3.68105">
        <ele>134</ele>
        <time>2021-10-18T14:02:56+02:00</time>
      </trkpt>
    </trkseg>
  </trk>
</gpx>